createdAt,value
2022-10-02T11:53:35.324Z,96355.41
2022-10-02T12:02:17.262Z,96350.69
2022-10-02T12:06:50.823Z,96352.47
2022-10-02T12:11:35.328Z,96343.25
2022-10-02T12:15:50.930Z,96329.47
2022-10-02T12:20:40.828Z,96327.25
2022-10-02T12:25:33.843Z,96326.28
2022-10-02T12:30:05.961Z,96317.56
2022-10-02T12:34:24.151Z,96315.03
2022-10-02T12:38:52.594Z,96316.25
2022-10-02T12:43:43.490Z,96294.19
2022-10-02T12:48:22.059Z,96304.25
2022-10-02T12:53:11.519Z,96325.53
2022-10-02T12:57:52.765Z,96325.81
2022-10-02T13:02:20.120Z,96331.28
2022-10-02T13:06:48.346Z,96335.50
2022-10-02T13:11:25.439Z,96368.25
2022-10-02T13:15:59.817Z,96370.06
2022-10-02T13:20:12.259Z,96375.72
2022-10-02T13:24:33.523Z,96382.16
2022-10-02T13:29:19.484Z,96382.00
2022-10-02T13:33:57.867Z,96384.94
2022-10-02T13:38:10.090Z,96365.50
2022-10-02T13:42:52.469Z,96396.31
2022-10-02T13:47:14.288Z,96375.72
2022-10-02T13:51:43.200Z,96374.34
2022-10-02T13:56:34.426Z,96392.59
2022-10-02T14:00:52.818Z,96401.03
2022-10-02T14:05:19.757Z,96392.84
2022-10-02T14:13:43.121Z,96417.53
2022-10-02T14:18:14.747Z,96426.25
2022-10-02T14:22:34.651Z,96429.50
2022-10-02T14:27:02.668Z,96435.81
2022-10-02T14:31:33.362Z,96447.28
2022-10-02T14:36:07.971Z,96453.06
2022-10-02T14:40:20.946Z,96444.81
2022-10-02T14:45:01.230Z,96458.19
2022-10-02T14:49:32.326Z,96472.53
2022-10-02T14:54:24.582Z,96484.28
2022-10-02T14:59:10.719Z,96470.78
2022-10-02T15:03:50.648Z,96439.47
2022-10-02T15:08:10.680Z,96439.63
2022-10-02T15:12:28.426Z,96430.00
2022-10-02T15:17:20.503Z,96442.03
2022-10-02T15:21:41.247Z,96449.69
2022-10-02T15:26:21.678Z,96462.97
2022-10-02T15:30:42.275Z,96466.69
2022-10-02T15:35:07.687Z,96459.22
2022-10-02T15:39:29.690Z,96450.47
2022-10-02T15:44:07.540Z,96455.56
2022-10-02T15:48:38.318Z,96441.63
2022-10-02T15:53:16.832Z,96450.03
2022-10-02T15:57:38.177Z,96458.19
2022-10-02T16:01:53.492Z,96455.78
2022-10-02T16:06:12.245Z,96457.31
2022-10-02T16:10:27.478Z,96468.59
2022-10-02T16:15:11.815Z,96488.59
2022-10-02T16:19:39.035Z,96499.91
2022-10-02T16:24:03.041Z,96485.41
2022-10-02T16:28:33.296Z,96492.38
2022-10-02T16:33:00.748Z,96503.81
2022-10-02T16:37:25.691Z,96517.81
2022-10-02T16:42:01.308Z,96514.59
2022-10-02T16:46:45.008Z,96507.69
2022-10-02T16:51:06.213Z,96503.97
2022-10-02T16:55:26.025Z,96509.34
2022-10-02T16:59:46.660Z,96514.41
2022-10-02T17:04:38.501Z,96528.44
2022-10-02T17:09:17.977Z,96521.53
2022-10-02T17:13:33.922Z,96517.53
2022-10-02T17:17:54.780Z,96544.97
2022-10-02T17:22:15.863Z,96539.59
2022-10-02T17:26:42.605Z,96553.47
2022-10-02T17:31:17.763Z,96569.88
2022-10-02T17:35:29.987Z,96598.09
2022-10-02T17:39:51.135Z,96585.13
2022-10-02T17:44:12.462Z,96588.84
2022-10-02T17:48:45.572Z,96585.00
2022-10-02T17:53:19.154Z,96590.88
2022-10-02T17:58:01.118Z,96608.84
2022-10-02T18:02:25.792Z,96621.16
2022-10-02T18:06:42.911Z,96632.41
2022-10-02T18:11:13.626Z,96629.63
2022-10-02T18:15:38.774Z,96636.38
2022-10-02T18:20:05.045Z,96629.47
2022-10-02T18:24:40.977Z,96639.34
2022-10-02T18:29:29.092Z,96658.56
2022-10-02T18:34:07.885Z,96656.88
2022-10-02T18:38:31.925Z,96662.25
2022-10-02T18:42:57.842Z,96668.13
2022-10-02T18:47:31.962Z,96665.81
2022-10-02T18:51:47.183Z,96666.56
2022-10-02T18:56:10.019Z,96642.88
2022-10-02T19:00:40.097Z,96653.78
2022-10-02T19:04:55.468Z,96648.25
2022-10-02T19:09:07.810Z,96643.50
2022-10-02T19:13:29.530Z,96653.66
2022-10-02T19:17:42.083Z,96654.00
2022-10-02T19:21:59.267Z,96661.38
2022-10-02T19:26:25.675Z,96670.28
2022-10-02T19:30:42.354Z,96681.38
2022-10-02T19:35:00.140Z,96675.81
2022-10-02T19:39:23.642Z,96684.31
2022-10-02T19:43:43.694Z,96685.84
2022-10-02T19:48:00.726Z,96690.31
2022-10-02T19:52:36.694Z,96692.31
2022-10-02T19:56:55.080Z,96691.72
2022-10-02T20:01:16.561Z,96688.00
2022-10-02T20:05:36.460Z,96705.88
2022-10-02T20:09:55.324Z,96718.03
2022-10-02T20:14:37.879Z,96720.34
2022-10-02T20:18:51.908Z,96728.03
2022-10-02T20:23:10.937Z,96721.72
2022-10-02T20:27:33.538Z,96718.66
2022-10-02T20:31:55.821Z,96725.28
2022-10-02T20:36:17.767Z,96713.41
2022-10-02T20:40:37.418Z,96718.34
2022-10-02T20:44:51.519Z,96724.19
2022-10-02T20:49:28.976Z,96725.88
2022-10-02T20:54:24.382Z,96750.47
2022-10-02T20:58:55.180Z,96777.69
2022-10-02T21:03:14.216Z,96750.94
2022-10-02T21:07:53.570Z,96770.94
2022-10-02T21:12:17.912Z,96757.22
2022-10-02T21:16:52.143Z,96762.94
2022-10-02T21:21:23.701Z,96775.94
2022-10-02T21:26:14.430Z,96779.31
2022-10-02T21:30:52.888Z,96792.69
2022-10-02T21:35:41.870Z,96783.53
2022-10-02T21:44:51.209Z,96804.44
2022-10-02T21:49:43.681Z,96810.78
2022-10-02T21:54:30.316Z,96829.22
2022-10-02T21:59:06.862Z,96824.13
2022-10-02T22:03:28.491Z,96829.38
2022-10-02T22:07:52.811Z,96829.38
2022-10-02T22:12:25.726Z,96829.66
2022-10-02T22:16:55.914Z,96839.78
2022-10-02T22:21:46.697Z,96842.75
2022-10-02T22:26:40.087Z,96848.47
2022-10-02T22:31:27.099Z,96849.97
2022-10-02T22:36:13.538Z,96858.06
2022-10-02T22:40:31.880Z,96856.22
2022-10-02T22:44:52.170Z,96858.94
2022-10-02T22:49:19.129Z,96859.94
2022-10-02T22:53:39.168Z,96870.25
2022-10-02T22:58:11.422Z,96876.66
2022-10-02T23:02:35.927Z,96881.03
2022-10-02T23:07:12.784Z,96879.38
2022-10-02T23:11:54.262Z,96871.50
2022-10-02T23:16:35.938Z,96884.13
2022-10-02T23:21:03.306Z,96892.69
2022-10-02T23:25:23.817Z,96886.38
2022-10-02T23:30:03.163Z,96896.22
2022-10-02T23:34:34.169Z,96906.03
2022-10-02T23:39:07.349Z,96902.31
2022-10-02T23:43:37.664Z,96899.75
2022-10-02T23:48:08.016Z,96907.19
2022-10-02T23:52:42.712Z,96902.69
2022-10-02T23:57:33.464Z,96903.47
